createdAt,value
2023-02-09T00:00:14.793Z,1019.24
2023-02-09T00:01:14.811Z,1019.28
2023-02-09T00:02:14.939Z,1019.29
2023-02-09T00:03:14.812Z,1019.31
2023-02-09T00:04:14.749Z,1019.25
2023-02-09T00:05:14.739Z,1019.26
2023-02-09T00:06:14.720Z,1019.24
2023-02-09T00:07:14.717Z,1019.24
2023-02-09T00:08:14.690Z,1019.24
2023-02-09T00:09:14.670Z,1019.25
2023-02-09T00:10:14.656Z,1019.28
2023-02-09T00:11:14.647Z,1019.22
2023-02-09T00:12:14.657Z,1019.20
2023-02-09T00:13:14.619Z,1019.16
2023-02-09T00:14:14.606Z,1019.19
2023-02-09T00:15:14.599Z,1019.18
2023-02-09T00:16:14.595Z,1019.16
2023-02-09T00:17:14.613Z,1019.17
2023-02-09T00:18:14.557Z,1019.21
2023-02-09T00:19:14.539Z,1019.17
2023-02-09T00:20:14.530Z,1019.15
2023-02-09T00:21:14.527Z,1019.17
2023-02-09T00:22:14.507Z,1019.17
2023-02-09T00:23:14.563Z,1019.12
2023-02-09T00:24:14.479Z,1019.12
2023-02-09T00:25:14.459Z,1019.11
2023-02-09T00:26:14.447Z,1019.13
2023-02-09T00:27:14.440Z,1019.11
2023-02-09T00:28:14.497Z,1019.08
2023-02-09T00:29:14.477Z,1019.12
2023-02-09T00:30:14.398Z,1019.10
2023-02-09T00:31:14.481Z,1019.09
2023-02-09T00:32:14.400Z,1019.08
2023-02-09T00:33:14.378Z,1019.03
2023-02-09T00:34:14.368Z,1019.03
2023-02-09T00:35:14.326Z,1019.06
2023-02-09T00:36:14.316Z,1019.02
2023-02-09T00:37:14.304Z,1019.02
2023-02-09T00:38:14.305Z,1019.07
2023-02-09T00:39:14.274Z,1019.06
2023-02-09T00:40:14.264Z,1019.07
2023-02-09T00:41:14.306Z,1019.09
2023-02-09T00:42:14.235Z,1019.11
2023-02-09T00:43:14.235Z,1019.11
2023-02-09T00:44:14.220Z,1019.11
2023-02-09T00:45:14.201Z,1019.10
2023-02-09T00:46:14.295Z,1019.06
2023-02-09T00:47:14.176Z,1019.06
2023-02-09T00:48:14.173Z,1019.05
2023-02-09T00:49:14.157Z,1019.07
2023-02-09T00:50:14.141Z,1019.09
2023-02-09T00:51:14.103Z,1019.11
2023-02-09T00:52:14.123Z,1019.12
2023-02-09T00:53:14.093Z,1019.05
2023-02-09T00:54:14.119Z,1019.06
2023-02-09T00:55:14.073Z,1019.05
2023-02-09T00:56:14.056Z,1019.06
2023-02-09T00:57:14.040Z,1019.10
2023-02-09T00:58:14.074Z,1019.03
2023-02-09T00:59:14.032Z,1019.07
2023-02-09T01:00:14.024Z,1019.13
2023-02-09T01:01:14.037Z,1019.09
2023-02-09T01:02:13.990Z,1019.09
2023-02-09T01:03:13.961Z,1019.04
2023-02-09T01:04:14.003Z,1019.09
2023-02-09T01:05:13.963Z,1019.04
2023-02-09T01:06:13.930Z,1019.06
2023-02-09T01:07:13.910Z,1019.04
2023-02-09T01:08:13.904Z,1019.00
2023-02-09T01:09:13.908Z,1018.98
2023-02-09T01:10:13.879Z,1018.95
2023-02-09T01:11:13.867Z,1018.95
2023-02-09T01:12:13.856Z,1018.98
2023-02-09T01:13:13.826Z,1018.99
2023-02-09T01:14:13.846Z,1018.94
2023-02-09T01:15:13.815Z,1018.92
2023-02-09T01:16:13.805Z,1018.91
2023-02-09T01:17:13.775Z,1018.89
2023-02-09T01:18:13.781Z,1018.86
2023-02-09T01:19:13.768Z,1018.86
2023-02-09T01:20:13.748Z,1018.79
2023-02-09T01:21:13.736Z,1018.79
2023-02-09T01:22:13.723Z,1018.76
2023-02-09T01:23:13.695Z,1018.76
2023-02-09T01:24:13.750Z,1018.77
2023-02-09T01:25:13.703Z,1018.76
2023-02-09T01:26:13.680Z,1018.72
2023-02-09T01:27:13.675Z,1018.71
2023-02-09T01:28:13.659Z,1018.72
2023-02-09T01:29:13.635Z,1018.72
2023-02-09T01:30:13.619Z,1018.72
2023-02-09T01:31:13.668Z,1018.69
2023-02-09T01:32:13.630Z,1018.69
2023-02-09T01:33:13.571Z,1018.67
2023-02-09T01:34:13.583Z,1018.69
2023-02-09T01:35:13.543Z,1018.64
2023-02-09T01:36:13.544Z,1018.65
2023-02-09T01:37:13.522Z,1018.67
2023-02-09T01:38:13.583Z,1018.63
2023-02-09T01:39:13.516Z,1018.64
2023-02-09T01:40:13.485Z,1018.64
2023-02-09T01:41:13.472Z,1018.63
2023-02-09T01:42:13.492Z,1018.67
2023-02-09T01:43:13.443Z,1018.67
2023-02-09T01:44:13.445Z,1018.67
2023-02-09T01:45:13.405Z,1018.66
2023-02-09T01:46:13.452Z,1018.60
2023-02-09T01:47:13.395Z,1018.61
2023-02-09T01:48:13.384Z,1018.62
2023-02-09T01:49:13.385Z,1018.58
2023-02-09T01:50:13.355Z,1018.56
2023-02-09T01:51:13.345Z,1018.54
2023-02-09T01:52:13.338Z,1018.56
2023-02-09T01:53:13.314Z,1018.54
2023-02-09T01:54:13.328Z,1018.51
2023-02-09T01:55:13.288Z,1018.54
2023-02-09T01:56:13.297Z,1018.52
2023-02-09T01:57:13.268Z,1018.49
2023-02-09T01:58:13.266Z,1018.47
2023-02-09T01:59:13.248Z,1018.48
2023-02-09T02:00:13.253Z,1018.46
2023-02-09T02:01:13.267Z,1018.45
2023-02-09T02:02:13.278Z,1018.45
2023-02-09T02:03:13.184Z,1018.43
2023-02-09T02:04:13.176Z,1018.41
2023-02-09T02:05:13.174Z,1018.44
2023-02-09T02:06:13.165Z,1018.39
2023-02-09T02:07:13.135Z,1018.40
2023-02-09T02:08:13.128Z,1018.40
2023-02-09T02:09:13.116Z,1018.34
2023-02-09T02:10:13.123Z,1018.32
2023-02-09T02:11:13.086Z,1018.32
2023-02-09T02:12:13.074Z,1018.33
2023-02-09T02:13:13.052Z,1018.31
2023-02-09T02:14:13.041Z,1018.31
2023-02-09T02:15:13.052Z,1018.30
2023-02-09T02:16:13.085Z,1018.32
2023-02-09T02:17:13.000Z,1018.35
2023-02-09T02:18:13.002Z,1018.32
2023-02-09T02:19:12.979Z,1018.34
2023-02-09T02:20:12.985Z,1018.35
2023-02-09T02:21:12.948Z,1018.33
2023-02-09T02:22:12.944Z,1018.34
2023-02-09T02:23:12.928Z,1018.32
2023-02-09T02:24:12.917Z,1018.36
2023-02-09T02:25:12.908Z,1018.37
2023-02-09T02:26:12.885Z,1018.35
2023-02-09T02:27:12.868Z,1018.36
2023-02-09T02:28:12.894Z,1018.36
2023-02-09T02:29:12.842Z,1018.33
2023-02-09T02:30:12.847Z,1018.37
2023-02-09T02:31:13.009Z,1018.37
2023-02-09T02:32:12.826Z,1018.38
2023-02-09T02:33:12.792Z,1018.38
2023-02-09T02:34:12.781Z,1018.37
2023-02-09T02:35:12.785Z,1018.40
2023-02-09T02:36:12.764Z,1018.34
2023-02-09T02:37:12.737Z,1018.37
2023-02-09T02:38:12.734Z,1018.37
2023-02-09T02:39:12.715Z,1018.38
2023-02-09T02:40:12.702Z,1018.37
2023-02-09T02:41:12.755Z,1018.37
2023-02-09T02:42:12.693Z,1018.35
2023-02-09T02:43:12.675Z,1018.37
2023-02-09T02:44:12.655Z,1018.41
2023-02-09T02:45:12.634Z,1018.40
2023-02-09T02:46:12.684Z,1018.39
2023-02-09T02:47:12.604Z,1018.39
2023-02-09T02:48:12.637Z,1018.40
2023-02-09T02:49:15.084Z,1018.41
2023-02-09T02:50:12.587Z,1018.28
2023-02-09T02:51:12.587Z,1018.30
2023-02-09T02:52:12.556Z,1018.28
2023-02-09T02:53:12.539Z,1018.28
2023-02-09T02:54:12.542Z,1018.27
2023-02-09T02:55:12.543Z,1018.24
2023-02-09T02:56:12.537Z,1018.27
2023-02-09T02:57:12.510Z,1018.27
2023-02-09T02:58:12.509Z,1018.27
2023-02-09T02:59:12.480Z,1018.34
2023-02-09T03:00:12.499Z,1018.36
2023-02-09T03:01:12.505Z,1018.37
2023-02-09T03:02:12.444Z,1018.39
2023-02-09T03:03:12.440Z,1018.41
2023-02-09T03:04:12.428Z,1018.40
2023-02-09T03:05:12.458Z,1018.37
2023-02-09T03:06:12.411Z,1018.38
2023-02-09T03:07:12.393Z,1018.41
2023-02-09T03:08:12.352Z,1018.45
2023-02-09T03:09:12.361Z,1018.38
2023-02-09T03:10:12.333Z,1018.40
2023-02-09T03:11:12.351Z,1018.35
2023-02-09T03:12:12.310Z,1018.37
2023-02-09T03:13:12.301Z,1018.38
2023-02-09T03:14:12.282Z,1018.31
2023-02-09T03:15:12.280Z,1018.35
2023-02-09T03:16:12.351Z,1018.34
2023-02-09T03:17:12.263Z,1018.32
2023-02-09T03:18:12.234Z,1018.34
2023-02-09T03:19:12.220Z,1018.36
2023-02-09T03:20:12.220Z,1018.35
2023-02-09T03:21:12.218Z,1018.35
2023-02-09T03:22:12.190Z,1018.27
2023-02-09T03:23:12.178Z,1018.29
2023-02-09T03:24:12.158Z,1018.27
2023-02-09T03:25:12.159Z,1018.28
2023-02-09T03:26:12.159Z,1018.28
2023-02-09T03:27:12.135Z,1018.25
2023-02-09T03:28:12.134Z,1018.25
2023-02-09T03:29:12.101Z,1018.24
2023-02-09T03:30:12.097Z,1018.23
2023-02-09T03:31:12.359Z,1018.29
2023-02-09T03:32:12.067Z,1018.26
2023-02-09T03:33:12.077Z,1018.26
2023-02-09T03:34:12.056Z,1018.27
2023-02-09T03:35:12.026Z,1018.30
2023-02-09T03:36:11.998Z,1018.32
2023-02-09T03:37:12.031Z,1018.32
2023-02-09T03:38:11.985Z,1018.36
2023-02-09T03:39:11.983Z,1018.35
2023-02-09T03:40:11.966Z,1018.29
2023-02-09T03:41:11.950Z,1018.33
2023-02-09T03:42:11.963Z,1018.30
2023-02-09T03:43:11.929Z,1018.30
2023-02-09T03:44:11.905Z,1018.34
2023-02-09T03:45:11.896Z,1018.32
2023-02-09T03:46:11.905Z,1018.39
2023-02-09T03:47:11.889Z,1018.37
2023-02-09T03:48:11.855Z,1018.35
2023-02-09T03:49:11.858Z,1018.36
2023-02-09T03:50:11.870Z,1018.32
2023-02-09T03:51:11.853Z,1018.34
2023-02-09T03:52:11.960Z,1018.32
2023-02-09T03:53:11.804Z,1018.29
2023-02-09T03:54:11.787Z,1018.27
2023-02-09T03:55:11.764Z,1018.23
2023-02-09T03:56:11.773Z,1018.22
2023-02-09T03:57:11.777Z,1018.26
2023-02-09T03:58:11.733Z,1018.25
2023-02-09T03:59:11.721Z,1018.30
2023-02-09T04:00:11.701Z,1018.27
2023-02-09T04:01:11.748Z,1018.27
2023-02-09T04:02:11.708Z,1018.28
2023-02-09T04:03:11.680Z,1018.28
2023-02-09T04:04:11.651Z,1018.28
2023-02-09T04:05:11.644Z,1018.25
2023-02-09T04:06:11.634Z,1018.25
2023-02-09T04:07:11.631Z,1018.26
2023-02-09T04:08:11.598Z,1018.25
2023-02-09T04:09:11.592Z,1018.16
2023-02-09T04:10:11.597Z,1018.19
2023-02-09T04:11:11.570Z,1018.13
2023-02-09T04:12:11.558Z,1018.11
2023-02-09T04:13:11.558Z,1018.14
2023-02-09T04:14:11.547Z,1018.19
2023-02-09T04:15:11.528Z,1018.22
2023-02-09T04:16:11.548Z,1018.26
2023-02-09T04:17:11.496Z,1018.27
2023-02-09T04:18:11.497Z,1018.25
2023-02-09T04:19:11.495Z,1018.22
2023-02-09T04:20:11.447Z,1018.23
2023-02-09T04:21:11.446Z,1018.24
2023-02-09T04:22:11.428Z,1018.25
2023-02-09T04:23:11.427Z,1018.26
2023-02-09T04:24:11.406Z,1018.29
2023-02-09T04:25:11.405Z,1018.25
2023-02-09T04:26:11.393Z,1018.27
2023-02-09T04:27:11.377Z,1018.29
2023-02-09T04:28:11.438Z,1018.30
2023-02-09T04:29:11.343Z,1018.32
2023-02-09T04:30:11.321Z,1018.32
2023-02-09T04:31:11.466Z,1018.29
2023-02-09T04:32:11.354Z,1018.30
2023-02-09T04:33:11.343Z,1018.33
2023-02-09T04:34:11.273Z,1018.33
2023-02-09T04:35:11.279Z,1018.32
2023-02-09T04:36:11.247Z,1018.36
2023-02-09T04:37:11.247Z,1018.38
2023-02-09T04:38:11.238Z,1018.38
2023-02-09T04:39:11.236Z,1018.31
2023-02-09T04:40:11.203Z,1018.34
2023-02-09T04:41:11.311Z,1018.36
2023-02-09T04:42:11.188Z,1018.33
2023-02-09T04:43:11.171Z,1018.30
2023-02-09T04:44:11.167Z,1018.30
2023-02-09T04:45:11.168Z,1018.31
2023-02-09T04:46:11.167Z,1018.35
2023-02-09T04:47:11.129Z,1018.36
2023-02-09T04:48:11.125Z,1018.36
2023-02-09T04:50:20.962Z,1018.32
2023-02-09T04:51:20.957Z,1018.33
2023-02-09T04:52:20.920Z,1018.34
2023-02-09T04:53:20.938Z,1018.34
2023-02-09T04:54:20.920Z,1018.34
2023-02-09T04:55:20.890Z,1018.32
2023-02-09T04:56:20.890Z,1018.33
2023-02-09T04:57:20.870Z,1018.29
2023-02-09T04:58:20.849Z,1018.29
2023-02-09T04:59:20.866Z,1018.29
2023-02-09T05:00:20.827Z,1018.31
2023-02-09T05:01:20.855Z,1018.35
2023-02-09T05:02:20.799Z,1018.34
2023-02-09T05:03:22.527Z,1018.32
2023-02-09T05:04:20.791Z,1018.36
2023-02-09T05:05:20.761Z,1018.40
2023-02-09T05:06:20.764Z,1018.37
2023-02-09T05:07:20.748Z,1018.37
2023-02-09T05:08:20.757Z,1018.37
2023-02-09T05:09:20.745Z,1018.38
2023-02-09T05:10:20.700Z,1018.32
2023-02-09T05:11:20.705Z,1018.37
2023-02-09T05:12:20.679Z,1018.35
2023-02-09T05:13:20.670Z,1018.35
2023-02-09T05:14:20.686Z,1018.38
2023-02-09T05:15:20.648Z,1018.36
2023-02-09T05:16:20.738Z,1018.36
2023-02-09T05:17:20.621Z,1018.38
2023-02-09T05:18:20.608Z,1018.39
2023-02-09T05:19:20.608Z,1018.36
2023-02-09T05:20:20.579Z,1018.36
2023-02-09T05:21:20.570Z,1018.33
2023-02-09T05:22:20.563Z,1018.37
2023-02-09T05:23:20.554Z,1018.37
2023-02-09T05:24:20.691Z,1018.39
2023-02-09T05:25:20.518Z,1018.42
2023-02-09T05:26:21.000Z,1018.38
2023-02-09T05:27:20.517Z,1018.38
2023-02-09T05:28:20.533Z,1018.38
2023-02-09T05:29:22.228Z,1018.36
2023-02-09T05:30:20.445Z,1018.41
2023-02-09T05:31:20.664Z,1018.43
2023-02-09T05:32:20.516Z,1018.39
2023-02-09T05:33:20.418Z,1018.32
2023-02-09T05:34:20.426Z,1018.37
2023-02-09T05:35:20.408Z,1018.35
2023-02-09T05:36:20.386Z,1018.33
2023-02-09T05:37:20.386Z,1018.33
2023-02-09T05:38:20.391Z,1018.33
2023-02-09T05:39:20.358Z,1018.29
2023-02-09T05:40:20.338Z,1018.30
2023-02-09T05:41:20.359Z,1018.33
2023-02-09T05:42:20.310Z,1018.35
2023-02-09T05:43:20.299Z,1018.36
2023-02-09T05:44:20.315Z,1018.36
2023-02-09T05:45:20.276Z,1018.35
2023-02-09T05:46:20.342Z,1018.36
2023-02-09T05:47:20.261Z,1018.31
2023-02-09T05:48:20.230Z,1018.34
2023-02-09T05:49:20.250Z,1018.33
2023-02-09T05:50:20.214Z,1018.30
2023-02-09T05:51:20.244Z,1018.33
2023-02-09T05:52:20.193Z,1018.31
2023-02-09T05:53:20.179Z,1018.35
2023-02-09T05:54:20.193Z,1018.37
2023-02-09T05:55:20.144Z,1018.40
2023-02-09T05:56:20.135Z,1018.44
2023-02-09T05:57:20.119Z,1018.45
2023-02-09T05:58:20.108Z,1018.43
2023-02-09T05:59:20.110Z,1018.43
2023-02-09T06:00:20.078Z,1018.40
2023-02-09T06:01:20.079Z,1018.40
2023-02-09T06:02:20.131Z,1018.40
2023-02-09T06:03:20.160Z,1018.40
2023-02-09T06:04:20.056Z,1018.42
2023-02-09T06:05:20.027Z,1018.41
2023-02-09T06:06:20.010Z,1018.40
2023-02-09T06:07:20.004Z,1018.38
2023-02-09T06:08:19.988Z,1018.38
2023-02-09T06:09:19.998Z,1018.44
2023-02-09T06:10:19.965Z,1018.43
2023-02-09T06:11:19.946Z,1018.47
2023-02-09T06:12:19.981Z,1018.45
2023-02-09T06:13:19.927Z,1018.46
2023-02-09T06:14:19.907Z,1018.50
2023-02-09T06:15:19.934Z,1018.47
2023-02-09T06:16:19.883Z,1018.50
2023-02-09T06:17:19.892Z,1018.48
2023-02-09T06:18:19.863Z,1018.54
2023-02-09T06:19:20.605Z,1018.53
2023-02-09T06:20:19.889Z,1018.55
2023-02-09T06:21:19.838Z,1018.56
2023-02-09T06:22:19.796Z,1018.57
2023-02-09T06:23:19.822Z,1018.55
2023-02-09T06:24:19.783Z,1018.57
2023-02-09T06:25:19.785Z,1018.58
2023-02-09T06:26:19.767Z,1018.58
2023-02-09T06:27:19.744Z,1018.64
2023-02-09T06:28:19.810Z,1018.66
2023-02-09T06:29:19.749Z,1018.67
2023-02-09T06:30:19.736Z,1018.71
2023-02-09T06:31:19.834Z,1018.71
2023-02-09T06:32:19.728Z,1018.73
2023-02-09T06:33:19.678Z,1018.70
2023-02-09T06:34:19.666Z,1018.69
2023-02-09T06:35:19.673Z,1018.69
2023-02-09T06:36:19.639Z,1018.72
2023-02-09T06:37:19.633Z,1018.78
2023-02-09T06:38:19.644Z,1018.76
2023-02-09T06:39:19.610Z,1018.78
2023-02-09T06:40:19.613Z,1018.80
2023-02-09T06:41:19.575Z,1018.82
2023-02-09T06:42:19.577Z,1018.82
2023-02-09T06:43:19.544Z,1018.79
2023-02-09T06:44:19.582Z,1018.78
2023-02-09T06:45:19.535Z,1018.81
2023-02-09T06:46:19.557Z,1018.83
2023-02-09T06:47:19.497Z,1018.85
2023-02-09T06:48:19.475Z,1018.76
2023-02-09T06:49:19.474Z,1018.74
2023-02-09T06:50:19.484Z,1018.73
2023-02-09T06:51:19.444Z,1018.76
2023-02-09T06:52:19.444Z,1018.72
2023-02-09T06:53:19.419Z,1018.75
2023-02-09T06:54:19.396Z,1018.76
2023-02-09T06:55:19.470Z,1018.75
2023-02-09T06:56:19.367Z,1018.75
2023-02-09T06:57:19.380Z,1018.79
2023-02-09T06:58:19.353Z,1018.78
2023-02-09T06:59:19.342Z,1018.76
2023-02-09T07:00:19.356Z,1018.78
2023-02-09T07:01:19.392Z,1018.79
2023-02-09T07:02:19.335Z,1018.78
2023-02-09T07:03:19.293Z,1018.76
2023-02-09T07:04:19.298Z,1018.81
2023-02-09T07:05:19.292Z,1018.78
2023-02-09T07:06:19.290Z,1018.79
2023-02-09T07:07:19.238Z,1018.81
2023-02-09T07:08:19.234Z,1018.77
2023-02-09T07:09:19.222Z,1018.80
2023-02-09T07:10:19.222Z,1018.83
2023-02-09T07:11:19.193Z,1018.85
2023-02-09T07:12:19.182Z,1018.90
2023-02-09T07:13:19.175Z,1018.98
2023-02-09T07:14:19.151Z,1018.95
2023-02-09T07:15:19.206Z,1018.91
2023-02-09T07:16:19.240Z,1018.87
2023-02-09T07:17:19.112Z,1018.83
2023-02-09T07:18:19.102Z,1018.79
2023-02-09T07:19:19.090Z,1018.82
2023-02-09T07:20:19.090Z,1018.78
2023-02-09T07:21:19.064Z,1018.80
2023-02-09T07:22:19.056Z,1018.79
2023-02-09T07:23:19.065Z,1018.79
2023-02-09T07:24:19.035Z,1018.77
2023-02-09T07:25:19.031Z,1018.79
2023-02-09T07:26:19.012Z,1018.80
2023-02-09T07:27:18.996Z,1018.81
2023-02-09T07:28:19.092Z,1018.77
2023-02-09T07:29:18.981Z,1018.76
2023-02-09T07:30:18.971Z,1018.78
2023-02-09T07:31:19.050Z,1018.75
2023-02-09T07:32:18.930Z,1018.74
2023-02-09T07:33:18.924Z,1018.72
2023-02-09T07:34:18.908Z,1018.74
2023-02-09T07:35:18.911Z,1018.72
2023-02-09T07:36:18.902Z,1018.74
2023-02-09T07:37:18.881Z,1018.74
2023-02-09T07:38:18.849Z,1018.74
2023-02-09T07:39:18.851Z,1018.71
2023-02-09T07:40:18.837Z,1018.73
2023-02-09T07:41:18.826Z,1018.75
2023-02-09T07:42:18.796Z,1018.78
2023-02-09T07:43:18.816Z,1018.77
2023-02-09T07:44:18.805Z,1018.80
2023-02-09T07:45:18.793Z,1018.80
2023-02-09T07:46:18.815Z,1018.74
2023-02-09T07:47:18.756Z,1018.75
2023-02-09T07:48:18.743Z,1018.70
2023-02-09T07:49:18.723Z,1018.68
2023-02-09T07:50:20.132Z,1018.68
2023-02-09T07:51:18.684Z,1018.70
2023-02-09T07:52:18.676Z,1018.72
2023-02-09T07:53:18.694Z,1018.72
2023-02-09T07:54:18.652Z,1018.73
2023-02-09T07:55:18.663Z,1018.78
2023-02-09T07:56:18.637Z,1018.75
2023-02-09T07:57:18.624Z,1018.76
2023-02-09T07:58:18.610Z,1018.78
2023-02-09T07:59:18.602Z,1018.81
2023-02-09T08:00:18.601Z,1018.82
2023-02-09T08:01:18.629Z,1018.79
2023-02-09T08:02:18.562Z,1018.80
2023-02-09T08:03:18.556Z,1018.79
2023-02-09T08:04:18.528Z,1018.82
2023-02-09T08:05:18.563Z,1018.76
2023-02-09T08:06:19.721Z,1018.74
2023-02-09T08:07:18.500Z,1018.72
2023-02-09T08:08:18.480Z,1018.70
2023-02-09T08:09:18.470Z,1018.72
2023-02-09T08:10:18.470Z,1018.76
2023-02-09T08:11:18.466Z,1018.73
2023-02-09T08:12:18.465Z,1018.72
2023-02-09T08:13:18.420Z,1018.67
2023-02-09T08:14:18.440Z,1018.71
2023-02-09T08:15:18.419Z,1018.67
2023-02-09T08:16:18.478Z,1018.70
2023-02-09T08:17:18.380Z,1018.65
2023-02-09T08:18:18.372Z,1018.68
2023-02-09T08:19:18.360Z,1018.69
2023-02-09T08:20:18.357Z,1018.64
2023-02-09T08:21:18.320Z,1018.66
2023-02-09T08:22:18.314Z,1018.64
2023-02-09T08:23:18.302Z,1018.64
2023-02-09T08:24:18.285Z,1018.60
2023-02-09T08:25:18.289Z,1018.60
2023-02-09T08:26:18.260Z,1018.65
2023-02-09T08:27:18.251Z,1018.60
2023-02-09T08:28:18.253Z,1018.59
2023-02-09T08:29:18.218Z,1018.64
2023-02-09T08:30:18.210Z,1018.58
2023-02-09T08:31:18.419Z,1018.59
2023-02-09T08:32:18.224Z,1018.59
2023-02-09T08:33:18.188Z,1018.59
2023-02-09T08:34:18.168Z,1018.60
2023-02-09T08:35:18.161Z,1018.62
2023-02-09T08:36:18.152Z,1018.64
2023-02-09T08:37:18.132Z,1018.69
2023-02-09T08:38:18.118Z,1018.74
2023-02-09T08:39:18.108Z,1018.78
2023-02-09T08:40:18.109Z,1018.76
2023-02-09T08:41:18.095Z,1018.80
2023-02-09T08:42:18.064Z,1018.82
2023-02-09T08:43:18.060Z,1018.83
2023-02-09T08:44:18.041Z,1018.83
2023-02-09T08:45:18.031Z,1018.77
2023-02-09T08:46:18.147Z,1018.80
2023-02-09T08:47:18.093Z,1018.84
2023-02-09T08:48:17.983Z,1018.85
2023-02-09T08:49:18.025Z,1018.86
2023-02-09T08:50:17.961Z,1018.85
2023-02-09T08:51:18.001Z,1018.84
2023-02-09T08:52:17.930Z,1018.89
2023-02-09T08:53:17.932Z,1018.87
2023-02-09T08:54:17.917Z,1018.89
2023-02-09T08:55:17.912Z,1018.89
2023-02-09T08:56:17.901Z,1018.90
2023-02-09T08:57:17.879Z,1018.93
2023-02-09T08:58:17.872Z,1018.91
2023-02-09T08:59:19.995Z,1018.87
2023-02-09T09:00:17.844Z,1018.85
2023-02-09T09:01:18.004Z,1018.80
2023-02-09T09:02:17.802Z,1018.74
2023-02-09T09:03:17.843Z,1018.71
2023-02-09T09:04:17.783Z,1018.70
2023-02-09T09:05:17.790Z,1018.71
2023-02-09T09:06:17.778Z,1018.65
2023-02-09T09:07:17.748Z,1018.68
2023-02-09T09:08:17.720Z,1018.65
2023-02-09T09:09:17.728Z,1018.67
2023-02-09T09:10:17.722Z,1018.65
2023-02-09T09:11:17.734Z,1018.67
2023-02-09T09:12:18.302Z,1018.69
2023-02-09T09:13:17.997Z,1018.74
2023-02-09T09:14:18.051Z,1018.70
2023-02-09T09:15:17.730Z,1018.72
2023-02-09T09:16:17.709Z,1018.75
2023-02-09T09:17:17.689Z,1018.75
2023-02-09T09:18:17.628Z,1018.76
2023-02-09T09:19:17.647Z,1018.80
2023-02-09T09:20:17.603Z,1018.82
2023-02-09T09:21:17.888Z,1018.78
2023-02-09T09:22:17.714Z,1018.73
2023-02-09T09:23:17.585Z,1018.77
2023-02-09T09:24:17.661Z,1018.77
2023-02-09T09:25:17.648Z,1018.70
2023-02-09T09:26:17.572Z,1018.71
2023-02-09T09:27:17.518Z,1018.71
2023-02-09T09:28:17.579Z,1018.70
2023-02-09T09:29:17.618Z,1018.71
2023-02-09T09:30:17.506Z,1018.69
2023-02-09T09:31:17.545Z,1018.63
2023-02-09T09:32:17.611Z,1018.64
2023-02-09T09:33:17.608Z,1018.61
2023-02-09T09:34:17.428Z,1018.59
2023-02-09T09:35:17.434Z,1018.57
2023-02-09T09:36:17.489Z,1018.56
2023-02-09T09:37:17.516Z,1018.52
2023-02-09T09:38:17.372Z,1018.50
2023-02-09T09:39:17.340Z,1018.53
2023-02-09T09:40:17.336Z,1018.53
2023-02-09T09:41:17.332Z,1018.61
2023-02-09T09:42:17.299Z,1018.61
2023-02-09T09:43:17.278Z,1018.64
2023-02-09T09:44:17.314Z,1018.65
2023-02-09T09:45:17.258Z,1018.66
2023-02-09T09:46:17.300Z,1018.68
2023-02-09T09:47:17.230Z,1018.68
2023-02-09T09:48:17.218Z,1018.68
2023-02-09T09:49:17.206Z,1018.67
2023-02-09T09:50:17.196Z,1018.63
2023-02-09T09:51:17.198Z,1018.59
2023-02-09T09:52:17.167Z,1018.64
2023-02-09T09:53:17.168Z,1018.61
2023-02-09T09:54:17.150Z,1018.64
2023-02-09T09:55:17.136Z,1018.67
2023-02-09T09:56:17.188Z,1018.64
2023-02-09T09:57:17.116Z,1018.66
2023-02-09T09:58:17.106Z,1018.73
2023-02-09T09:59:17.064Z,1018.69
2023-02-09T10:00:17.062Z,1018.71
2023-02-09T10:01:17.103Z,1018.63
2023-02-09T10:02:17.046Z,1018.61
2023-02-09T10:03:17.040Z,1018.64
2023-02-09T10:04:17.149Z,1018.63
2023-02-09T10:05:17.002Z,1018.63
2023-02-09T10:06:17.004Z,1018.64
2023-02-09T10:07:19.152Z,1018.65
2023-02-09T10:08:16.968Z,1018.66
2023-02-09T10:09:17.076Z,1018.63
2023-02-09T10:10:16.934Z,1018.67
2023-02-09T10:11:16.929Z,1018.60
2023-02-09T10:12:17.087Z,1018.58
2023-02-09T10:13:16.902Z,1018.55
2023-02-09T10:14:16.886Z,1018.54
2023-02-09T10:15:16.875Z,1018.52
2023-02-09T10:16:16.988Z,1018.57
2023-02-09T10:17:16.862Z,1018.61
2023-02-09T10:18:16.835Z,1018.66
2023-02-09T10:19:16.841Z,1018.69
2023-02-09T10:20:16.803Z,1018.72
2023-02-09T10:21:16.797Z,1018.72
2023-02-09T10:22:16.810Z,1018.69
2023-02-09T10:23:16.763Z,1018.70
2023-02-09T10:24:16.768Z,1018.68
2023-02-09T10:25:16.752Z,1018.71
2023-02-09T10:26:16.780Z,1018.69
2023-02-09T10:27:16.734Z,1018.69
2023-02-09T10:28:16.781Z,1018.71
2023-02-09T10:29:16.682Z,1018.73
2023-02-09T10:30:16.680Z,1018.75
2023-02-09T10:31:16.830Z,1018.74
2023-02-09T10:32:16.681Z,1018.74
2023-02-09T10:33:16.629Z,1018.74
2023-02-09T10:34:16.622Z,1018.79
2023-02-09T10:35:16.697Z,1018.76
2023-02-09T10:36:16.598Z,1018.78
2023-02-09T10:37:16.608Z,1018.77
2023-02-09T10:38:16.567Z,1018.77
2023-02-09T10:39:16.559Z,1018.75
2023-02-09T10:40:16.547Z,1018.77
2023-02-09T10:41:16.532Z,1018.78
2023-02-09T10:42:16.555Z,1018.82
2023-02-09T10:43:16.511Z,1018.78
2023-02-09T10:44:16.527Z,1018.85
2023-02-09T10:45:16.488Z,1018.85
2023-02-09T10:46:16.525Z,1018.90
2023-02-09T10:47:16.505Z,1018.86
2023-02-09T10:48:16.435Z,1018.87
2023-02-09T10:49:16.424Z,1018.84
2023-02-09T10:50:23.500Z,1018.83
2023-02-09T10:51:16.401Z,1018.83
2023-02-09T10:52:16.407Z,1018.82
2023-02-09T10:53:16.369Z,1018.79
2023-02-09T10:54:16.379Z,1018.80
2023-02-09T10:55:16.351Z,1018.74
2023-02-09T10:56:16.340Z,1018.72
2023-02-09T10:57:16.337Z,1018.68
2023-02-09T10:58:16.309Z,1018.69
2023-02-09T10:59:16.287Z,1018.67
2023-02-09T11:00:16.297Z,1018.60
2023-02-09T11:01:16.284Z,1018.57
2023-02-09T11:02:16.281Z,1018.57
2023-02-09T11:03:16.250Z,1018.56
2023-02-09T11:04:16.326Z,1018.55
2023-02-09T11:05:16.231Z,1018.55
2023-02-09T11:06:16.222Z,1018.53
2023-02-09T11:07:16.202Z,1018.52
2023-02-09T11:08:16.213Z,1018.55
2023-02-09T11:09:16.185Z,1018.53
2023-02-09T11:10:16.172Z,1018.45
2023-02-09T11:11:16.163Z,1018.55
2023-02-09T11:12:16.142Z,1018.55
2023-02-09T11:13:16.148Z,1018.51
2023-02-09T11:14:16.155Z,1018.56
2023-02-09T11:15:16.116Z,1018.56
2023-02-09T11:16:16.177Z,1018.60
2023-02-09T11:17:16.080Z,1018.59
2023-02-09T11:18:16.084Z,1018.60
2023-02-09T11:19:16.044Z,1018.60
2023-02-09T11:20:16.051Z,1018.64
2023-02-09T11:21:16.027Z,1018.66
2023-02-09T11:22:16.032Z,1018.59
2023-02-09T11:23:16.013Z,1018.59
2023-02-09T11:24:15.998Z,1018.57
2023-02-09T11:25:15.987Z,1018.57
2023-02-09T11:26:15.976Z,1018.54
2023-02-09T11:27:15.956Z,1018.56
2023-02-09T11:28:16.022Z,1018.54
2023-02-09T11:29:15.923Z,1018.62
2023-02-09T11:30:15.923Z,1018.62
2023-02-09T11:31:15.933Z,1018.56
2023-02-09T11:32:15.884Z,1018.47
2023-02-09T11:33:15.886Z,1018.47
2023-02-09T11:34:15.873Z,1018.47
2023-02-09T11:35:15.843Z,1018.46
2023-02-09T11:36:15.833Z,1018.40
2023-02-09T11:37:15.826Z,1018.40
2023-02-09T11:38:15.851Z,1018.39
2023-02-09T11:39:15.793Z,1018.36
2023-02-09T11:40:15.910Z,1018.37
2023-02-09T11:41:15.763Z,1018.38
2023-02-09T11:42:15.756Z,1018.33
2023-02-09T11:43:15.895Z,1018.30
2023-02-09T11:44:15.734Z,1018.23
2023-02-09T11:45:15.702Z,1018.20
2023-02-09T11:46:15.785Z,1018.18
2023-02-09T11:47:15.695Z,1018.22
2023-02-09T11:48:15.703Z,1018.18
2023-02-09T11:49:15.676Z,1018.21
2023-02-09T11:50:15.742Z,1018.20
2023-02-09T11:51:15.641Z,1018.20
2023-02-09T11:52:15.633Z,1018.23
2023-02-09T11:53:15.633Z,1018.20
2023-02-09T11:54:15.612Z,1018.21
2023-02-09T11:55:15.582Z,1018.20
2023-02-09T11:56:15.574Z,1018.18
2023-02-09T11:57:15.565Z,1018.24
2023-02-09T11:58:15.565Z,1018.28
2023-02-09T11:59:15.540Z,1018.24
2023-02-09T12:00:15.552Z,1018.28
2023-02-09T12:01:16.679Z,1018.22
2023-02-09T12:02:15.504Z,1018.20
2023-02-09T12:03:15.616Z,1018.15
2023-02-09T12:04:15.471Z,1018.16
2023-02-09T12:05:15.453Z,1018.14
2023-02-09T12:06:15.455Z,1018.13